Time;durP1;ratioP1;P1;durP2;ratioP2;P2;SDS_P1;SDS_P2;PMS_P1;PMS_P2;Temp;Humidity;BMP_temperature;BMP_pressure;BME280_temperature;BME280_humidity;BME280_pressure;Samples;Min_cycle;Max_cycle;Signal;HPM_P1;HPM_P2
2021/06/22 00:00:58;;;;;;;3.60;2.03;;;;;;;16.52;42.07;101011.06;3581390;40;20056;-80
2021/06/22 00:03:26;;;;;;;4.28;2.40;;;;;;;16.53;42.04;101001.75;3590969;40;20532;-79
2021/06/22 00:05:55;;;;;;;4.07;2.15;;;;;;;16.54;42.18;101005.38;3589156;40;20470;-78
2021/06/22 00:08:23;;;;;;;3.70;2.22;;;;;;;16.55;42.27;100990.50;3601227;40;20034;-80
2021/06/22 00:11:04;;;;;;;4.05;2.30;;;;;;;16.52;42.72;100988.97;3588750;40;20039;-79
2021/06/22 00:13:34;;;;;;;3.97;2.10;;;;;;;16.55;42.44;100985.84;3591327;40;20619;-79
2021/06/22 00:16:03;;;;;;;4.47;1.98;;;;;;;16.55;42.23;100982.22;3598134;40;20032;-79
2021/06/22 00:18:32;;;;;;;3.80;2.10;;;;;;;16.54;42.46;100983.28;3594418;40;20032;-81
2021/06/22 00:21:00;;;;;;;3.75;2.20;;;;;;;16.54;42.93;100997.09;3600836;39;20117;-79
2021/06/22 00:23:29;;;;;;;3.88;2.10;;;;;;;16.54;42.50;101000.72;3600760;40;20304;-80
2021/06/22 00:25:59;;;;;;;3.67;2.45;;;;;;;16.53;42.84;100996.22;3590623;40;20104;-79
2021/06/22 00:28:27;;;;;;;3.60;2.03;;;;;;;16.53;42.79;100985.19;3590681;40;20377;-80
2021/06/22 00:30:56;;;;;;;5.68;2.63;;;;;;;16.53;42.33;100982.41;3587264;40;20036;-80
2021/06/22 00:33:25;;;;;;;5.03;2.30;;;;;;;16.47;42.19;100977.53;3600834;40;20090;-79
2021/06/22 00:35:54;;;;;;;4.03;2.80;;;;;;;16.43;42.73;100969.75;3591206;40;20032;-80
2021/06/22 00:38:22;;;;;;;3.40;2.22;;;;;;;16.40;42.43;100972.81;3597501;40;20373;-79
2021/06/22 00:40:50;;;;;;;3.38;2.00;;;;;;;16.37;42.41;100975.94;3600462;39;20044;-79
2021/06/22 00:43:18;;;;;;;3.25;2.15;;;;;;;16.34;42.94;100970.75;3580734;40;20038;-79
2021/06/22 00:45:48;;;;;;;4.70;2.83;;;;;;;16.32;43.02;100972.78;3588850;40;20040;-79
2021/06/22 00:48:18;;;;;;;4.10;2.38;;;;;;;16.33;42.58;100967.13;3586966;40;20125;-79
2021/06/22 00:50:48;;;;;;;4.05;2.33;;;;;;;16.30;42.67;100958.31;3573090;40;20036;-79
2021/06/22 00:53:17;;;;;;;4.18;2.45;;;;;;;16.31;42.97;100974.69;3590400;40;20076;-79
2021/06/22 00:55:46;;;;;;;3.75;2.40;;;;;;;16.29;42.55;100957.47;3600802;39;20051;-79
2021/06/22 00:58:28;;;;;;;3.80;2.42;;;;;;;16.25;42.54;100972.59;3598363;40;20036;-78
2021/06/22 01:00:57;;;;;;;5.47;2.70;;;;;;;16.28;42.98;100985.22;3600555;40;20024;-79
2021/06/22 01:03:26;;;;;;;5.07;2.92;;;;;;;16.28;42.61;100990.75;3593436;39;20297;-80
2021/06/22 01:05:59;;;;;;;3.33;2.17;;;;;;;16.25;43.13;100994.69;3595986;40;20028;-79
2021/06/22 01:08:29;;;;;;;4.53;2.42;;;;;;;16.28;42.51;101001.78;3598310;40;20060;-79
2021/06/22 01:10:58;;;;;;;4.57;2.20;;;;;;;16.30;42.57;101003.31;3588638;40;20123;-79
2021/06/22 01:13:28;;;;;;;3.75;2.10;;;;;;;16.29;42.25;101009.03;3591434;40;20028;-80
2021/06/22 01:15:56;;;;;;;5.10;2.60;;;;;;;16.29;42.14;101009.03;3592080;40;20087;-79
2021/06/22 01:18:27;;;;;;;2.95;1.90;;;;;;;16.30;42.14;101005.25;3590651;40;20136;-79
2021/06/22 01:21:20;;;;;;;4.05;1.95;;;;;;;16.24;41.99;101001.22;3593525;40;20105;-77
2021/06/22 01:24:05;;;;;;;3.65;2.35;;;;;;;16.25;41.72;100996.59;3585418;40;20396;-77
2021/06/22 01:26:34;;;;;;;3.22;1.85;;;;;;;16.19;42.05;100996.22;3588651;40;20355;-77
2021/06/22 01:29:04;;;;;;;2.67;1.73;;;;;;;16.19;42.01;100992.59;3600360;40;20047;-78
2021/06/22 01:31:33;;;;;;;3.42;1.70;;;;;;;16.16;42.03;100982.75;3587559;40;20396;-77
2021/06/22 01:34:01;;;;;;;3.85;1.73;;;;;;;16.17;42.31;100987.25;3586819;40;20039;-80
2021/06/22 01:36:33;;;;;;;2.80;1.63;;;;;;;16.18;41.84;100988.97;3593140;40;20526;-79
2021/06/22 01:39:05;;;;;;;4.13;1.80;;;;;;;16.18;42.10;100983.47;3590638;40;20144;-80
2021/06/22 01:41:35;;;;;;;3.40;1.70;;;;;;;16.18;41.91;100977.94;3591089;40;20048;-78
2021/06/22 01:44:03;;;;;;;2.90;1.58;;;;;;;16.22;42.24;100980.38;3600648;40;20035;-78
2021/06/22 01:46:33;;;;;;;2.80;1.50;;;;;;;16.22;41.91;100975.69;3582150;40;20466;-79
2021/06/22 01:49:02;;;;;;;3.20;1.48;;;;;;;16.24;42.07;100968.13;3591633;40;20036;-79
2021/06/22 01:51:37;;;;;;;2.50;1.50;;;;;;;16.26;41.42;100955.03;3594541;40;20052;-80
2021/06/22 01:54:05;;;;;;;2.05;1.27;;;;;;;16.27;42.05;100956.75;3587078;40;20056;-79
2021/06/22 01:56:36;;;;;;;3.22;1.58;;;;;;;16.28;41.57;100960.38;3588233;40;20522;-79
2021/06/22 01:59:07;;;;;;;3.75;1.80;;;;;;;16.26;41.83;100959.66;3598667;40;20379;-80
2021/06/22 02:01:55;;;;;;;4.50;1.70;;;;;;;16.26;41.50;100973.47;3596631;40;20053;-79
2021/06/22 02:04:46;;;;;;;2.90;1.77;;;;;;;16.23;41.93;100974.66;3594173;40;20032;-79
2021/06/22 02:07:18;;;;;;;2.75;1.40;;;;;;;16.28;41.55;100976.94;3589967;40;20064;-79
2021/06/22 02:09:46;;;;;;;3.75;1.60;;;;;;;16.25;42.10;100972.59;3599618;40;20325;-79
2021/06/22 02:12:23;;;;;;;4.03;1.40;;;;;;;16.26;41.70;100971.56;3590154;40;20040;-79
2021/06/22 02:14:51;;;;;;;2.50;1.67;;;;;;;16.27;41.99;100976.06;3599932;40;20039;-80
2021/06/22 02:17:21;;;;;;;3.10;1.42;;;;;;;16.27;41.61;100973.31;3589662;40;20101;-79
2021/06/22 02:19:49;;;;;;;3.00;1.58;;;;;;;16.27;41.93;100983.50;3599765;39;20040;-79
2021/06/22 02:22:34;;;;;;;3.45;1.90;;;;;;;16.27;41.79;100980.72;3590263;40;20059;-77
2021/06/22 02:25:06;;;;;;;3.13;2.00;;;;;;;16.27;41.43;100989.00;3586929;40;20036;-77
2021/06/22 02:27:35;;;;;;;3.10;1.60;;;;;;;16.24;41.82;100986.56;3590389;40;20032;-78
2021/06/22 02:30:06;;;;;;;2.95;1.67;;;;;;;16.22;41.88;100983.13;3599273;40;20051;-78
2021/06/22 02:32:40;;;;;;;2.72;1.52;;;;;;;16.19;41.49;100987.94;3593737;40;20059;-77
2021/06/22 02:35:30;;;;;;;3.47;1.40;;;;;;;16.18;41.53;100996.38;3589902;40;20290;-78
2021/06/22 02:38:07;;;;;;;3.28;1.70;;;;;;;16.18;41.40;101001.91;3590881;40;20056;-78
2021/06/22 02:40:56;;;;;;;3.08;1.52;;;;;;;16.15;42.22;101002.22;3588923;40;20044;-77
2021/06/22 02:43:32;;;;;;;3.20;1.73;;;;;;;16.16;42.10;101013.09;3589989;40;20087;-78
2021/06/22 02:46:01;;;;;;;2.63;1.52;;;;;;;16.17;42.17;101000.19;3580854;40;20047;-78
2021/06/22 02:48:32;;;;;;;3.13;1.55;;;;;;;16.20;42.39;101005.38;3587866;40;20040;-78
2021/06/22 02:51:01;;;;;;;3.17;1.50;;;;;;;16.22;42.07;101006.06;3590032;40;20051;-78
2021/06/22 02:53:37;;;;;;;3.33;1.50;;;;;;;16.26;42.24;101007.47;3587544;40;20378;-78
2021/06/22 02:56:06;;;;;;;5.50;1.75;;;;;;;16.27;42.08;101009.19;3573606;40;20432;-78
2021/06/22 02:58:37;;;;;;;3.40;1.65;;;;;;;16.30;42.06;101010.78;3589974;40;20020;-78
2021/06/22 03:01:08;;;;;;;4.43;1.70;;;;;;;16.29;42.00;101011.78;3580300;40;20340;-77
2021/06/22 03:03:37;;;;;;;2.67;1.65;;;;;;;16.30;42.02;101008.00;3594390;39;20375;-78
2021/06/22 03:06:09;;;;;;;4.30;1.70;;;;;;;16.30;41.45;101008.00;3580651;40;20107;-78
2021/06/22 03:08:57;;;;;;;3.35;1.83;;;;;;;16.31;41.65;100993.16;3588788;40;20052;-78
2021/06/22 03:11:48;;;;;;;2.28;1.48;;;;;;;16.28;41.52;100999.88;3595704;39;20029;-81
2021/06/22 03:14:19;;;;;;;2.70;1.60;;;;;;;16.27;41.52;101003.69;3597426;40;20137;-78
2021/06/22 03:17:04;;;;;;;2.65;1.75;;;;;;;16.26;42.05;101001.06;3591635;39;20020;-77
2021/06/22 03:19:34;;;;;;;3.78;1.70;;;;;;;16.24;41.92;101009.50;3591214;40;20031;-78
2021/06/22 03:22:05;;;;;;;3.67;1.80;;;;;;;16.23;41.99;101018.81;3581492;40;20080;-78
2021/06/22 03:24:35;;;;;;;4.88;2.35;;;;;;;16.23;41.73;101018.81;3590569;39;20047;-78
2021/06/22 03:27:04;;;;;;;4.47;2.08;;;;;;;16.21;41.51;101020.03;3590131;39;20059;-78
2021/06/22 03:29:49;;;;;;;5.80;2.22;;;;;;;16.16;41.70;101015.88;3574629;40;20114;-78
2021/06/22 03:32:17;;;;;;;4.75;2.10;;;;;;;16.13;41.75;101015.34;3588356;40;20060;-79
2021/06/22 03:34:45;;;;;;;4.80;2.28;;;;;;;16.09;41.57;101017.56;3591766;40;20040;-77
2021/06/22 03:37:13;;;;;;;4.78;2.35;;;;;;;16.03;42.03;101011.84;3598941;40;20036;-78
2021/06/22 03:39:43;;;;;;;3.20;2.05;;;;;;;15.96;42.04;101011.63;3589675;40;20096;-79
2021/06/22 03:42:12;;;;;;;4.25;2.28;;;;;;;15.88;41.58;101007.97;3589520;40;20028;-78
2021/06/22 03:44:41;;;;;;;3.72;2.03;;;;;;;15.79;41.88;101007.91;3582742;40;20060;-79
2021/06/22 03:47:14;;;;;;;4.47;2.13;;;;;;;15.71;42.43;101009.75;3591131;40;20052;-77
2021/06/22 03:49:43;;;;;;;4.95;2.30;;;;;;;15.67;42.60;101016.59;3589202;40;20032;-78
2021/06/22 03:52:11;;;;;;;3.97;2.20;;;;;;;15.60;42.66;101013.59;3589360;40;20040;-80
2021/06/22 03:54:42;;;;;;;4.00;2.40;;;;;;;15.57;42.58;101021.31;3589183;40;20060;-78
2021/06/22 03:57:14;;;;;;;4.43;2.13;;;;;;;15.56;42.80;101028.72;3589252;40;20092;-79
2021/06/22 04:00:13;;;;;;;3.72;1.98;;;;;;;15.51;42.31;101027.47;3583979;40;20042;-78
2021/06/22 04:02:45;;;;;;;3.58;1.60;;;;;;;15.49;42.43;101026.78;3599531;39;20048;-78
2021/06/22 04:05:17;;;;;;;4.32;1.60;;;;;;;15.51;42.99;101027.47;3591187;40;20369;-78
2021/06/22 04:07:58;;;;;;;3.75;1.80;;;;;;;15.54;42.90;101033.56;3592738;39;20044;-78
2021/06/22 04:10:30;;;;;;;5.20;1.90;;;;;;;15.58;42.50;101042.34;3590597;40;20032;-78
2021/06/22 04:12:59;;;;;;;4.00;2.30;;;;;;;15.58;42.99;101032.19;3587961;40;20067;-78
2021/06/22 04:15:28;;;;;;;3.50;1.80;;;;;;;15.59;42.99;101036.69;3581617;40;20044;-78
2021/06/22 04:18:02;;;;;;;2.83;1.60;;;;;;;15.58;42.47;101039.59;3589947;40;20032;-79
2021/06/22 04:20:37;;;;;;;3.60;1.70;;;;;;;15.62;42.49;101041.91;3587343;40;20141;-78
2021/06/22 04:23:12;;;;;;;4.10;1.67;;;;;;;15.63;42.83;101040.88;3584333;39;20049;-78
2021/06/22 04:25:42;;;;;;;4.50;1.80;;;;;;;15.67;42.32;101046.94;3595210;39;20112;-79
2021/06/22 04:28:12;;;;;;;4.45;2.00;;;;;;;15.65;42.33;101054.50;3592648;40;20078;-78
2021/06/22 04:30:41;;;;;;;3.13;1.65;;;;;;;15.65;42.28;101057.25;3578008;40;20120;-79
2021/06/22 04:33:29;;;;;;;5.20;1.90;;;;;;;15.63;43.00;101065.69;3599861;40;20035;-78
2021/06/22 04:36:17;;;;;;;3.30;1.67;;;;;;;15.63;42.86;101060.16;3591721;40;20384;-79
2021/06/22 04:39:05;;;;;;;3.35;1.80;;;;;;;15.64;43.16;101061.06;3592993;40;20067;-78
2021/06/22 04:41:55;;;;;;;3.13;1.60;;;;;;;15.67;43.05;101066.25;3593305;40;20308;-80
2021/06/22 04:44:43;;;;;;;4.78;2.10;;;;;;;15.67;42.79;101064.34;3599099;40;20304;-79
2021/06/22 04:47:31;;;;;;;5.15;2.10;;;;;;;15.69;43.03;101064.19;3593684;39;20428;-78
2021/06/22 04:50:09;;;;;;;3.50;1.77;;;;;;;15.72;43.00;101061.97;3582109;40;20029;-79
2021/06/22 04:52:57;;;;;;;5.00;2.15;;;;;;;15.74;42.53;101070.09;3589760;40;20337;-78
2021/06/22 04:55:31;;;;;;;4.35;2.00;;;;;;;15.75;43.16;101060.78;3582258;40;20362;-80
2021/06/22 04:58:20;;;;;;;4.60;2.00;;;;;;;15.78;42.66;101066.88;3598706;40;20038;-80
2021/06/22 05:01:08;;;;;;;4.80;2.10;;;;;;;15.80;43.22;101063.94;3599149;39;20036;-81
2021/06/22 05:03:39;;;;;;;5.65;2.03;;;;;;;15.83;43.09;101066.38;3583043;40;20070;-80
2021/06/22 05:06:28;;;;;;;4.38;2.22;;;;;;;15.85;42.60;101058.81;3589725;40;20377;-79
2021/06/22 05:09:16;;;;;;;4.40;2.08;;;;;;;15.87;42.86;101069.69;3586007;40;20051;-80
2021/06/22 05:11:52;;;;;;;4.40;2.22;;;;;;;15.88;42.66;101072.28;3589004;40;21612;-79
2021/06/22 05:14:35;;;;;;;4.18;2.10;;;;;;;15.88;42.94;101072.28;3593258;40;20054;-79
2021/06/22 05:17:13;;;;;;;5.88;2.80;;;;;;;15.88;42.43;101071.41;3600219;39;20032;-79
2021/06/22 05:19:45;;;;;;;;;;;;;;;15.62;43.19;101063.94;3592731;40;20372;-77
2021/06/22 05:22:22;;;;;;;4.45;2.30;;;;;;;15.86;42.91;101079.84;3594097;40;19932;-79
2021/06/22 05:25:11;;;;;;;5.68;2.35;;;;;;;15.90;42.43;101078.47;3590294;40;20299;-79
2021/06/22 05:27:59;;;;;;;4.25;2.33;;;;;;;15.88;42.87;101087.97;3590335;40;20032;-79
2021/06/22 05:30:48;;;;;;;5.85;3.20;;;;;;;15.89;42.78;101087.78;3590330;40;20061;-81
2021/06/22 05:33:36;;;;;;;5.45;3.15;;;;;;;15.85;42.77;101085.53;3589614;40;20035;-79
2021/06/22 05:36:24;;;;;;;4.85;2.47;;;;;;;15.82;42.64;101089.47;3590198;40;20400;-78
2021/06/22 05:39:13;;;;;;;6.00;2.88;;;;;;;15.78;42.73;101093.59;3599231;40;20064;-79
2021/06/22 05:42:02;;;;;;;4.40;2.72;;;;;;;15.73;42.74;101096.81;3592102;40;20047;-79
2021/06/22 05:44:50;;;;;;;4.53;2.72;;;;;;;15.72;42.93;101105.25;3593422;40;20056;-78
2021/06/22 05:47:39;;;;;;;5.32;3.15;;;;;;;15.70;42.82;101108.19;3597440;40;20056;-79
2021/06/22 05:50:27;;;;;;;6.53;3.10;;;;;;;15.67;43.05;101107.63;3599977;40;20403;-78
2021/06/22 05:53:16;;;;;;;5.03;3.22;;;;;;;15.65;43.09;101106.91;3591195;40;20047;-78
2021/06/22 05:56:05;;;;;;;5.97;3.10;;;;;;;15.66;43.09;101104.00;3585324;40;20072;-78
2021/06/22 05:58:53;;;;;;;7.75;3.70;;;;;;;15.65;43.31;101102.25;3597447;39;20073;-80
2021/06/22 06:01:41;;;;;;;7.68;3.75;;;;;;;15.66;42.92;101095.72;3588817;40;20061;-78
2021/06/22 06:04:31;;;;;;;5.78;2.95;;;;;;;15.69;43.27;101103.69;3596288;40;20021;-78
2021/06/22 06:07:21;;;;;;;5.07;3.22;;;;;;;15.68;43.17;101101.06;3588991;40;20058;-78
2021/06/22 06:10:10;;;;;;;7.28;3.30;;;;;;;15.68;43.20;101101.06;3594045;40;20068;-77
2021/06/22 06:12:58;;;;;;;5.20;3.40;;;;;;;15.64;43.06;101105.19;3592417;40;20102;-78
2021/06/22 06:15:47;;;;;;;6.75;4.57;;;;;;;15.62;43.17;101094.28;3596087;40;20367;-77
2021/06/22 06:18:35;;;;;;;6.97;4.07;;;;;;;15.59;42.96;101099.25;3596249;39;20056;-77
2021/06/22 06:21:25;;;;;;;6.95;4.10;;;;;;;15.58;43.20;101100.25;3596189;40;20067;-76
2021/06/22 06:24:13;;;;;;;6.45;4.25;;;;;;;15.51;42.53;101094.53;3593147;40;20055;-77
2021/06/22 06:27:06;;;;;;;6.68;4.22;;;;;;;15.47;42.65;101104.16;3591167;40;20032;-77
2021/06/22 06:29:57;;;;;;;6.87;4.10;;;;;;;15.40;42.91;101101.13;3598382;40;20312;-77
2021/06/22 06:32:46;;;;;;;7.07;4.47;;;;;;;15.41;43.25;101107.53;3598398;40;20339;-78
2021/06/22 06:35:34;;;;;;;6.95;4.38;;;;;;;15.39;42.97;101104.91;3593242;39;20319;-76
2021/06/22 06:38:24;;;;;;;6.60;3.97;;;;;;;15.39;43.20;101101.31;3597111;40;20051;-77
2021/06/22 06:41:12;;;;;;;7.72;4.65;;;;;;;15.34;43.00;101099.03;3596324;40;20056;-82
2021/06/22 06:43:40;;;;;;;7.03;4.30;;;;;;;15.36;43.12;101101.63;3589409;40;20303;-79
2021/06/22 06:46:08;;;;;;;6.75;4.10;;;;;;;15.35;43.38;101100.75;3580964;40;20040;-80
2021/06/22 06:48:38;;;;;;;6.75;4.15;;;;;;;15.37;43.09;101117.16;3590614;40;20061;-81
2021/06/22 06:51:06;;;;;;;8.55;4.25;;;;;;;15.36;43.15;101118.16;3581139;40;20289;-78
2021/06/22 06:53:36;;;;;;;6.25;3.92;;;;;;;15.40;43.50;101130.59;3590210;40;20029;-82
2021/06/22 06:56:05;;;;;;;7.70;4.68;;;;;;;15.39;43.35;101128.88;3581966;40;20289;-85
2021/06/22 06:58:33;;;;;;;8.07;5.20;;;;;;;15.38;42.94;101122.50;3582657;40;20077;-82
2021/06/22 07:01:01;;;;;;;10.00;4.97;;;;;;;15.39;43.44;101126.13;3572590;40;20106;-80
2021/06/22 07:03:30;;;;;;;8.95;5.55;;;;;;;15.40;42.99;101133.34;3590992;40;20117;-84
2021/06/22 07:05:59;;;;;;;9.15;5.55;;;;;;;15.40;43.22;101136.09;3580563;40;20302;-80
2021/06/22 07:08:27;;;;;;;9.88;5.75;;;;;;;15.40;43.31;101153.50;3590351;40;20036;-79
2021/06/22 07:10:57;;;;;;;9.80;6.13;;;;;;;15.40;43.23;101148.00;3580902;40;20065;-82
2021/06/22 07:13:26;;;;;;;9.48;6.72;;;;;;;15.38;43.13;101140.94;3590739;40;20393;-82
2021/06/22 07:15:54;;;;;;;11.52;7.28;;;;;;;15.40;43.87;101147.13;3590673;40;20029;-81
2021/06/22 07:18:22;;;;;;;13.77;7.63;;;;;;;15.39;43.58;101148.19;3590151;40;20381;-80
2021/06/22 07:20:51;;;;;;;12.40;6.93;;;;;;;15.38;43.92;101141.81;3572744;40;20285;-82
2021/06/22 07:23:19;;;;;;;10.35;7.32;;;;;;;15.40;44.11;101138.88;3581375;40;20041;-81
2021/06/22 07:25:47;;;;;;;11.05;6.20;;;;;;;15.40;44.09;101136.09;3581254;40;20040;-82
2021/06/22 07:28:17;;;;;;;9.52;6.60;;;;;;;15.43;44.36;101138.56;3589498;40;20060;-82
2021/06/22 07:30:47;;;;;;;9.68;6.65;;;;;;;15.46;43.78;101143.78;3590147;40;20028;-81
2021/06/22 07:33:16;;;;;;;11.25;7.20;;;;;;;15.46;43.90;101140.16;3581331;40;20053;-82
2021/06/22 07:35:46;;;;;;;9.40;6.88;;;;;;;15.48;44.33;101147.22;3572932;40;20040;-81
2021/06/22 07:38:14;;;;;;;11.13;6.82;;;;;;;15.49;43.72;101143.44;3580740;40;20146;-83
2021/06/22 07:40:43;;;;;;;10.93;7.00;;;;;;;15.50;43.64;101147.94;3580642;40;20039;-81
2021/06/22 07:43:11;;;;;;;9.35;6.55;;;;;;;15.52;43.54;101145.03;3580692;40;20280;-82
2021/06/22 07:45:41;;;;;;;9.77;6.65;;;;;;;15.54;43.78;101154.88;3572746;40;20040;-82
2021/06/22 07:48:11;;;;;;;8.45;6.10;;;;;;;15.54;43.43;101142.97;3591591;40;20110;-82
2021/06/22 07:50:39;;;;;;;8.02;6.20;;;;;;;15.53;43.91;101146.75;3582553;40;20110;-82
2021/06/22 07:53:08;;;;;;;8.73;6.53;;;;;;;15.54;43.83;101152.13;3582554;40;20035;-83
2021/06/22 07:55:40;;;;;;;10.70;7.20;;;;;;;15.57;43.80;101151.78;3582216;40;20035;-82
2021/06/22 07:58:10;;;;;;;9.63;6.35;;;;;;;15.53;43.31;101155.91;3583486;40;20106;-81
2021/06/22 08:00:45;;;;;;;9.65;7.03;;;;;;;15.57;43.33;101150.91;3591511;40;20084;-82
2021/06/22 08:03:15;;;;;;;9.70;6.65;;;;;;;15.54;43.51;101145.75;3582349;40;20051;-80
2021/06/22 08:05:45;;;;;;;7.72;5.60;;;;;;;15.56;43.58;101155.56;3582588;40;20392;-82
2021/06/22 08:08:17;;;;;;;7.45;5.53;;;;;;;15.56;43.16;101150.03;3582469;40;20402;-81
2021/06/22 08:10:47;;;;;;;8.15;5.78;;;;;;;15.57;43.88;101153.66;3582383;40;20056;-81
2021/06/22 08:13:16;;;;;;;7.20;5.38;;;;;;;15.61;44.00;101153.22;3591991;40;20413;-81
2021/06/22 08:15:46;;;;;;;7.95;5.88;;;;;;;15.66;44.08;101150.88;3591980;40;20122;-81
2021/06/22 08:18:15;;;;;;;7.43;5.55;;;;;;;15.66;44.44;101142.59;3582543;40;20037;-81
2021/06/22 08:20:45;;;;;;;6.68;5.07;;;;;;;15.69;44.18;101136.78;3591155;40;20377;-82
2021/06/22 08:23:13;;;;;;;7.65;5.00;;;;;;;15.71;44.49;101131.97;3590895;40;20044;-82
2021/06/22 08:25:42;;;;;;;6.68;4.85;;;;;;;15.72;44.07;101135.59;3582045;40;20044;-80
2021/06/22 08:28:11;;;;;;;8.15;5.03;;;;;;;15.73;44.34;101143.69;3591485;40;20029;-83
2021/06/22 08:30:40;;;;;;;7.53;4.82;;;;;;;15.76;44.25;101142.50;3582555;40;20065;-81
2021/06/22 08:33:11;;;;;;;6.88;4.72;;;;;;;15.78;44.11;101143.22;3591463;40;20054;-80
2021/06/22 08:35:41;;;;;;;6.60;4.60;;;;;;;15.79;44.65;101133.94;3591768;40;20044;-82
2021/06/22 08:38:11;;;;;;;6.65;4.68;;;;;;;15.83;44.48;101143.59;3592354;40;20250;-80
2021/06/22 08:40:44;;;;;;;7.00;5.10;;;;;;;15.86;44.38;101147.94;3591262;40;20043;-80
2021/06/22 08:43:16;;;;;;;7.05;5.13;;;;;;;15.89;44.57;101142.97;3591329;40;20049;-82
2021/06/22 08:45:45;;;;;;;6.32;4.93;;;;;;;15.91;44.64;101145.56;3591902;40;20024;-82
2021/06/22 08:48:16;;;;;;;7.13;4.93;;;;;;;15.98;44.42;101135.59;3590915;40;20032;-82
2021/06/22 08:50:47;;;;;;;8.80;6.03;;;;;;;15.96;43.83;101143.22;3582347;40;20373;-81
2021/06/22 08:53:15;;;;;;;8.13;5.72;;;;;;;16.00;44.06;101139.09;3582350;40;20043;-80
2021/06/22 08:55:46;;;;;;;6.50;4.95;;;;;;;16.04;44.06;101138.63;3591290;40;20047;-81
2021/06/22 08:58:16;;;;;;;8.30;5.88;;;;;;;16.08;44.14;101141.91;3581483;40;20033;-81
2021/06/22 09:00:47;;;;;;;6.18;5.07;;;;;;;16.13;44.17;101145.94;3591177;40;20107;-81
2021/06/22 09:03:22;;;;;;;7.13;5.38;;;;;;;16.19;44.59;101150.78;3591172;40;20052;-80
2021/06/22 09:05:53;;;;;;;7.70;5.85;;;;;;;16.24;43.94;101149.44;3581692;40;20368;-82
2021/06/22 09:08:23;;;;;;;8.63;5.78;;;;;;;16.30;44.17;101151.56;3591129;40;20031;-82
2021/06/22 09:10:53;;;;;;;7.10;4.97;;;;;;;16.40;43.82;101146.75;3591668;40;20028;-82
2021/06/22 09:13:23;;;;;;;10.35;5.50;;;;;;;16.44;43.94;101140.78;3590779;40;20370;-81
2021/06/22 09:15:53;;;;;;;7.50;4.70;;;;;;;16.52;43.50;101132.56;3591027;40;20037;-83
2021/06/22 09:18:31;;;;;;;7.40;5.30;;;;;;;16.60;43.44;101140.03;3590684;40;20404;-81
2021/06/22 09:21:01;;;;;;;7.80;5.20;;;;;;;16.61;43.66;101133.47;3581757;40;20266;-81
2021/06/22 09:23:32;;;;;;;7.85;5.35;;;;;;;16.66;43.35;101144.00;3590784;40;20021;-82
2021/06/22 09:26:01;;;;;;;8.70;5.07;;;;;;;16.69;42.70;101146.47;3590746;40;20049;-80
2021/06/22 09:28:31;;;;;;;5.88;4.43;;;;;;;16.68;42.78;101148.34;3590986;40;20032;-81
2021/06/22 09:31:02;;;;;;;6.40;4.78;;;;;;;16.69;42.34;101155.59;3581184;40;20114;-81
2021/06/22 09:33:36;;;;;;;8.30;4.95;;;;;;;16.67;42.50;101151.28;3590798;40;20025;-81
2021/06/22 09:36:11;;;;;;;6.55;4.80;;;;;;;16.70;42.43;101153.72;3581436;40;20381;-76
2021/06/22 09:38:42;;;;;;;8.25;5.30;;;;;;;16.68;42.75;101153.00;3597126;40;20064;-76
2021/06/22 09:41:17;;;;;;;7.07;5.32;;;;;;;16.68;42.59;101158.53;3589733;40;20047;-74
2021/06/22 09:43:47;;;;;;;7.65;5.07;;;;;;;16.67;42.77;101157.66;3600480;39;20044;-75
2021/06/22 09:46:18;;;;;;;8.63;4.93;;;;;;;16.67;42.77;101159.56;3596397;39;20389;-75
2021/06/22 09:48:54;;;;;;;8.48;5.32;;;;;;;16.69;42.39;101163.91;3587449;40;20059;-75
2021/06/22 09:51:29;;;;;;;8.18;4.30;;;;;;;16.68;42.32;101175.97;3596233;40;20048;-74
2021/06/22 09:54:08;;;;;;;6.07;3.83;;;;;;;;;;3586137;40;20047;-74
2021/06/22 09:56:36;;;;;;;7.38;4.32;;;;;;;16.70;42.67;101173.91;3597396;40;20144;-74
2021/06/22 09:59:09;;;;;;;7.97;5.07;;;;;;;16.75;42.41;101174.28;3580947;40;20320;-74
2021/06/22 10:01:38;;;;;;;6.30;4.65;;;;;;;16.74;42.74;101189.13;3598564;40;20051;-75
2021/06/22 10:04:16;;;;;;;6.00;4.20;;;;;;;16.79;42.10;101183.97;3597456;40;20059;-76
2021/06/22 10:06:50;;;;;;;5.30;4.10;;;;;;;16.81;41.99;101179.13;3597038;39;20040;-75
2021/06/22 10:09:27;;;;;;;6.43;4.75;;;;;;;16.81;41.69;101184.66;3589592;40;20059;-77
2021/06/22 10:12:04;;;;;;;5.75;3.92;;;;;;;16.82;41.83;101185.53;3596666;39;20064;-77
2021/06/22 10:14:35;;;;;;;5.50;3.72;;;;;;;16.82;42.00;101178.09;3603814;39;20088;-77
2021/06/22 10:17:05;;;;;;;6.85;4.50;;;;;;;16.82;42.44;101169.81;3592417;39;20047;-77
2021/06/22 10:19:37;;;;;;;5.05;3.85;;;;;;;16.86;42.08;101167.59;3597068;39;20105;-76
2021/06/22 10:22:06;;;;;;;5.80;4.00;;;;;;;16.83;41.76;101156.88;3595442;40;20404;-74
2021/06/22 10:24:38;;;;;;;5.47;3.75;;;;;;;16.85;41.95;101160.34;3588246;40;20270;-76
2021/06/22 10:27:07;;;;;;;6.35;4.28;;;;;;;16.86;42.23;101151.03;3588736;40;20087;-76
2021/06/22 10:29:35;;;;;;;5.78;3.47;;;;;;;16.88;41.75;101146.16;3589588;40;20060;-76
2021/06/22 10:32:05;;;;;;;7.30;4.30;;;;;;;16.91;42.14;101140.31;3596060;39;20047;-75
2021/06/22 10:34:37;;;;;;;7.35;4.40;;;;;;;16.93;41.83;101141.03;3596425;39;20404;-76
2021/06/22 10:37:12;;;;;;;5.13;3.50;;;;;;;16.97;41.31;101150.69;3593898;40;20064;-73
2021/06/22 10:39:48;;;;;;;5.05;3.53;;;;;;;16.98;41.62;101149.66;3596613;39;20062;-76
2021/06/22 10:42:17;;;;;;;6.28;3.60;;;;;;;17.02;41.81;101155.75;3601607;39;20058;-75
2021/06/22 10:44:49;;;;;;;4.72;3.13;;;;;;;17.09;41.94;101145.75;3593532;39;20059;-74
2021/06/22 10:47:36;;;;;;;6.85;4.30;;;;;;;17.12;41.67;101149.06;3583630;40;20048;-75
2021/06/22 10:50:31;;;;;;;5.10;3.72;;;;;;;17.18;41.19;101142.84;3585470;40;20051;-75
2021/06/22 10:53:05;;;;;;;6.22;4.03;;;;;;;17.26;41.73;101142.84;3583440;40;20057;-75
2021/06/22 10:55:58;;;;;;;6.30;3.70;;;;;;;17.30;41.16;101144.28;3590506;39;20395;-75
2021/06/22 10:58:28;;;;;;;7.35;4.00;;;;;;;17.32;41.70;101146.88;3592083;40;20036;-74
2021/06/22 11:01:13;;;;;;;4.57;3.33;;;;;;;17.41;40.66;101147.75;3589789;39;20068;-73
2021/06/22 11:03:45;;;;;;;5.53;3.50;;;;;;;17.42;41.08;101147.59;3595523;40;20129;-74
2021/06/22 11:06:29;;;;;;;6.70;4.25;;;;;;;17.47;40.63;101147.06;3589233;40;20040;-73
2021/06/22 11:09:21;;;;;;;6.50;4.50;;;;;;;17.47;40.16;101160.88;3596806;40;20039;-74
2021/06/22 11:11:49;;;;;;;6.05;4.07;;;;;;;17.47;40.52;101167.28;3596233;39;20079;-75
2021/06/22 11:14:19;;;;;;;7.78;3.90;;;;;;;17.48;40.56;101162.63;3574848;40;20300;-74
2021/06/22 11:16:47;;;;;;;7.53;4.30;;;;;;;17.47;40.19;101166.41;3587854;40;20047;-73
2021/06/22 11:19:16;;;;;;;5.45;3.78;;;;;;;17.46;40.39;101159.16;3594740;40;20056;-77
2021/06/22 11:21:56;;;;;;;6.18;4.45;;;;;;;17.49;40.75;101162.47;3594304;39;20056;-78
2021/06/22 11:24:27;;;;;;;6.40;3.55;;;;;;;17.49;41.08;101161.59;3596954;39;20095;-77
2021/06/22 11:27:03;;;;;;;5.88;3.60;;;;;;;17.54;40.59;101168.34;3600981;39;20040;-77
2021/06/22 11:29:50;;;;;;;5.65;3.70;;;;;;;17.56;40.83;101160.75;3599688;40;20113;-78
2021/06/22 11:32:39;;;;;;;6.30;3.80;;;;;;;17.57;40.08;101162.47;3597325;40;20440;-76
2021/06/22 11:35:17;;;;;;;5.82;3.55;;;;;;;17.59;40.85;101160.41;3596387;40;20037;-77
2021/06/22 11:37:47;;;;;;;7.20;3.65;;;;;;;17.62;40.92;101167.47;3598317;39;20377;-78
2021/06/22 11:40:21;;;;;;;6.30;3.33;;;;;;;17.66;40.69;101168.88;3597386;40;20040;-77
2021/06/22 11:43:09;;;;;;;6.25;3.55;;;;;;;17.65;40.16;101156.94;3599926;40;20039;-74
2021/06/22 11:45:39;;;;;;;4.97;3.60;;;;;;;17.64;40.26;101160.75;3589675;40;20371;-78
2021/06/22 11:48:08;;;;;;;4.70;3.45;;;;;;;17.64;39.99;101159.88;3574728;40;20312;-76
2021/06/22 11:50:47;;;;;;;5.38;3.20;;;;;;;17.67;40.30;101159.56;3592379;40;20072;-75
2021/06/22 11:53:17;;;;;;;5.68;3.33;;;;;;;17.68;40.50;101152.97;3591248;40;20400;-75
2021/06/22 11:55:51;;;;;;;5.43;2.97;;;;;;;17.70;40.35;101153.69;3597956;40;20397;-76
2021/06/22 11:58:24;;;;;;;4.60;3.33;;;;;;;17.67;40.56;101157.66;3589236;40;20114;-75
2021/06/22 12:00:55;;;;;;;5.53;3.72;;;;;;;17.66;40.44;101155.91;3586203;40;20419;-76